sensor_id;sensor_type;location;lat;lon;timestamp;P1;durP1;ratioP1;P2;durP2;ratioP2
54993;SDS011;40891;47.242;8.648;2022-12-07T00:01:18;28.37;;;14.30;;
54993;SDS011;40891;47.242;8.648;2022-12-07T00:03:48;29.10;;;14.90;;
54993;SDS011;40891;47.242;8.648;2022-12-07T00:06:16;26.53;;;13.53;;
54993;SDS011;40891;47.242;8.648;2022-12-07T00:08:42;26.67;;;14.57;;
54993;SDS011;40891;47.242;8.648;2022-12-07T00:11:09;26.40;;;14.20;;
54993;SDS011;40891;47.242;8.648;2022-12-07T00:13:40;26.10;;;13.73;;
54993;SDS011;40891;47.242;8.648;2022-12-07T00:16:07;29.23;;;15.00;;
54993;SDS011;40891;47.242;8.648;2022-12-07T00:18:42;28.63;;;14.87;;
54993;SDS011;40891;47.242;8.648;2022-12-07T00:21:12;26.93;;;13.93;;
54993;SDS011;40891;47.242;8.648;2022-12-07T00:23:39;25.83;;;13.50;;
54993;SDS011;40891;47.242;8.648;2022-12-07T00:26:40;24.93;;;13.57;;
54993;SDS011;40891;47.242;8.648;2022-12-07T00:29:00;25.33;;;13.77;;
54993;SDS011;40891;47.242;8.648;2022-12-07T00:31:31;27.33;;;14.27;;
54993;SDS011;40891;47.242;8.648;2022-12-07T00:34:03;26.53;;;13.53;;
54993;SDS011;40891;47.242;8.648;2022-12-07T00:36:32;26.50;;;14.03;;
54993;SDS011;40891;47.242;8.648;2022-12-07T00:38:58;28.97;;;15.23;;
54993;SDS011;40891;47.242;8.648;2022-12-07T00:41:25;29.00;;;14.83;;
54993;SDS011;40891;47.242;8.648;2022-12-07T00:43:51;29.80;;;15.30;;
54993;SDS011;40891;47.242;8.648;2022-12-07T00:46:17;28.83;;;14.60;;
54993;SDS011;40891;47.242;8.648;2022-12-07T00:48:44;28.20;;;14.90;;
54993;SDS011;40891;47.242;8.648;2022-12-07T00:51:10;29.23;;;14.83;;
54993;SDS011;40891;47.242;8.648;2022-12-07T00:53:36;28.13;;;14.30;;
54993;SDS011;40891;47.242;8.648;2022-12-07T00:56:06;28.23;;;14.87;;
54993;SDS011;40891;47.242;8.648;2022-12-07T00:58:33;29.20;;;14.57;;
54993;SDS011;40891;47.242;8.648;2022-12-07T01:01:02;28.23;;;14.00;;
54993;SDS011;40891;47.242;8.648;2022-12-07T01:03:29;29.67;;;15.53;;
54993;SDS011;40891;47.242;8.648;2022-12-07T01:05:54;27.17;;;15.10;;
54993;SDS011;40891;47.242;8.648;2022-12-07T01:08:20;28.17;;;14.50;;
54993;SDS011;40891;47.242;8.648;2022-12-07T01:10:47;26.90;;;14.83;;
54993;SDS011;40891;47.242;8.648;2022-12-07T01:13:13;28.67;;;14.60;;
54993;SDS011;40891;47.242;8.648;2022-12-07T01:15:39;25.43;;;13.87;;
54993;SDS011;40891;47.242;8.648;2022-12-07T01:18:05;29.47;;;14.40;;
54993;SDS011;40891;47.242;8.648;2022-12-07T01:20:30;30.77;;;16.10;;
54993;SDS011;40891;47.242;8.648;2022-12-07T01:22:56;30.70;;;15.30;;
54993;SDS011;40891;47.242;8.648;2022-12-07T01:25:21;29.73;;;14.97;;
54993;SDS011;40891;47.242;8.648;2022-12-07T01:27:46;29.00;;;14.70;;
54993;SDS011;40891;47.242;8.648;2022-12-07T01:30:12;29.07;;;14.80;;
54993;SDS011;40891;47.242;8.648;2022-12-07T01:32:37;29.60;;;15.67;;
54993;SDS011;40891;47.242;8.648;2022-12-07T01:35:03;28.83;;;15.03;;
54993;SDS011;40891;47.242;8.648;2022-12-07T01:37:33;26.53;;;14.83;;
54993;SDS011;40891;47.242;8.648;2022-12-07T01:40:00;30.37;;;14.07;;
54993;SDS011;40891;47.242;8.648;2022-12-07T01:42:25;28.47;;;14.33;;
54993;SDS011;40891;47.242;8.648;2022-12-07T01:47:55;31.87;;;15.43;;
54993;SDS011;40891;47.242;8.648;2022-12-07T01:50:23;28.17;;;14.57;;
54993;SDS011;40891;47.242;8.648;2022-12-07T01:52:51;27.97;;;14.27;;
54993;SDS011;40891;47.242;8.648;2022-12-07T01:55:19;28.60;;;14.83;;
54993;SDS011;40891;47.242;8.648;2022-12-07T01:57:46;28.57;;;15.47;;
54993;SDS011;40891;47.242;8.648;2022-12-07T02:00:14;27.33;;;15.17;;
54993;SDS011;40891;47.242;8.648;2022-12-07T02:02:48;28.17;;;15.10;;
54993;SDS011;40891;47.242;8.648;2022-12-07T02:05:18;30.10;;;15.53;;
54993;SDS011;40891;47.242;8.648;2022-12-07T02:07:44;29.13;;;15.27;;
54993;SDS011;40891;47.242;8.648;2022-12-07T02:12:38;25.53;;;13.67;;
54993;SDS011;40891;47.242;8.648;2022-12-07T02:15:03;28.57;;;14.67;;
54993;SDS011;40891;47.242;8.648;2022-12-07T02:17:36;27.13;;;13.83;;
54993;SDS011;40891;47.242;8.648;2022-12-07T02:20:45;31.50;;;15.77;;
54993;SDS011;40891;47.242;8.648;2022-12-07T02:23:23;30.13;;;14.97;;
54993;SDS011;40891;47.242;8.648;2022-12-07T02:26:21;30.90;;;15.53;;
54993;SDS011;40891;47.242;8.648;2022-12-07T02:31:36;30.00;;;15.80;;
54993;SDS011;40891;47.242;8.648;2022-12-07T02:34:12;26.80;;;14.23;;
54993;SDS011;40891;47.242;8.648;2022-12-07T02:36:52;28.07;;;14.67;;
54993;SDS011;40891;47.242;8.648;2022-12-07T02:39:28;30.93;;;14.73;;
54993;SDS011;40891;47.242;8.648;2022-12-07T02:41:56;27.90;;;15.57;;
54993;SDS011;40891;47.242;8.648;2022-12-07T02:44:27;26.60;;;14.70;;
54993;SDS011;40891;47.242;8.648;2022-12-07T02:47:02;31.70;;;14.73;;
54993;SDS011;40891;47.242;8.648;2022-12-07T02:49:32;28.07;;;14.97;;
54993;SDS011;40891;47.242;8.648;2022-12-07T02:51:57;30.53;;;15.50;;
54993;SDS011;40891;47.242;8.648;2022-12-07T02:54:23;31.17;;;14.77;;
54993;SDS011;40891;47.242;8.648;2022-12-07T02:57:01;30.43;;;14.67;;
54993;SDS011;40891;47.242;8.648;2022-12-07T02:59:54;27.43;;;13.90;;
54993;SDS011;40891;47.242;8.648;2022-12-07T03:05:13;30.97;;;14.73;;
54993;SDS011;40891;47.242;8.648;2022-12-07T03:07:58;27.33;;;14.17;;
54993;SDS011;40891;47.242;8.648;2022-12-07T03:13:32;29.43;;;14.20;;
54993;SDS011;40891;47.242;8.648;2022-12-07T03:16:23;28.23;;;13.60;;
54993;SDS011;40891;47.242;8.648;2022-12-07T03:18:57;27.20;;;14.07;;
54993;SDS011;40891;47.242;8.648;2022-12-07T03:21:42;28.47;;;14.13;;
54993;SDS011;40891;47.242;8.648;2022-12-07T03:24:15;29.57;;;14.47;;
54993;SDS011;40891;47.242;8.648;2022-12-07T03:26:46;27.33;;;14.83;;
54993;SDS011;40891;47.242;8.648;2022-12-07T03:29:17;28.83;;;14.40;;
54993;SDS011;40891;47.242;8.648;2022-12-07T03:31:51;24.07;;;13.97;;
54993;SDS011;40891;47.242;8.648;2022-12-07T03:37:04;27.90;;;13.80;;
54993;SDS011;40891;47.242;8.648;2022-12-07T03:39:37;30.27;;;14.63;;
54993;SDS011;40891;47.242;8.648;2022-12-07T03:42:04;26.83;;;14.17;;
54993;SDS011;40891;47.242;8.648;2022-12-07T03:44:32;28.63;;;14.87;;
54993;SDS011;40891;47.242;8.648;2022-12-07T03:49:49;26.97;;;14.53;;
54993;SDS011;40891;47.242;8.648;2022-12-07T03:55:10;28.50;;;14.70;;
54993;SDS011;40891;47.242;8.648;2022-12-07T03:57:36;30.33;;;15.27;;
54993;SDS011;40891;47.242;8.648;2022-12-07T04:00:03;28.67;;;14.00;;
54993;SDS011;40891;47.242;8.648;2022-12-07T04:02:30;27.93;;;14.57;;
54993;SDS011;40891;47.242;8.648;2022-12-07T04:04:57;27.63;;;14.23;;
54993;SDS011;40891;47.242;8.648;2022-12-07T04:07:23;28.50;;;14.13;;
54993;SDS011;40891;47.242;8.648;2022-12-07T04:09:48;26.90;;;14.63;;
54993;SDS011;40891;47.242;8.648;2022-12-07T04:12:13;26.23;;;14.20;;
54993;SDS011;40891;47.242;8.648;2022-12-07T04:14:39;25.87;;;14.27;;
54993;SDS011;40891;47.242;8.648;2022-12-07T04:17:04;27.73;;;14.80;;
54993;SDS011;40891;47.242;8.648;2022-12-07T04:19:33;27.90;;;14.47;;
54993;SDS011;40891;47.242;8.648;2022-12-07T04:21:59;27.30;;;14.77;;
54993;SDS011;40891;47.242;8.648;2022-12-07T04:24:27;26.10;;;14.97;;
54993;SDS011;40891;47.242;8.648;2022-12-07T04:26:52;29.07;;;14.97;;
54993;SDS011;40891;47.242;8.648;2022-12-07T04:29:19;26.23;;;13.33;;
54993;SDS011;40891;47.242;8.648;2022-12-07T04:31:44;26.23;;;14.43;;
54993;SDS011;40891;47.242;8.648;2022-12-07T04:34:10;26.13;;;14.67;;
54993;SDS011;40891;47.242;8.648;2022-12-07T04:36:36;27.73;;;14.20;;
54993;SDS011;40891;47.242;8.648;2022-12-07T04:39:03;28.17;;;14.63;;
54993;SDS011;40891;47.242;8.648;2022-12-07T04:41:29;29.53;;;14.97;;
54993;SDS011;40891;47.242;8.648;2022-12-07T04:43:57;27.73;;;14.73;;
54993;SDS011;40891;47.242;8.648;2022-12-07T04:46:24;31.30;;;14.90;;
54993;SDS011;40891;47.242;8.648;2022-12-07T04:48:51;26.50;;;13.87;;
54993;SDS011;40891;47.242;8.648;2022-12-07T04:51:26;29.23;;;14.73;;
54993;SDS011;40891;47.242;8.648;2022-12-07T04:53:53;35.87;;;16.93;;
54993;SDS011;40891;47.242;8.648;2022-12-07T04:56:19;30.53;;;15.63;;
54993;SDS011;40891;47.242;8.648;2022-12-07T04:58:45;32.70;;;16.93;;
54993;SDS011;40891;47.242;8.648;2022-12-07T05:01:12;34.13;;;16.73;;
54993;SDS011;40891;47.242;8.648;2022-12-07T05:03:38;33.20;;;15.87;;
54993;SDS011;40891;47.242;8.648;2022-12-07T05:06:04;32.93;;;16.53;;
54993;SDS011;40891;47.242;8.648;2022-12-07T05:08:31;29.80;;;14.67;;
54993;SDS011;40891;47.242;8.648;2022-12-07T05:10:58;31.00;;;16.70;;
54993;SDS011;40891;47.242;8.648;2022-12-07T05:13:23;33.30;;;15.57;;
54993;SDS011;40891;47.242;8.648;2022-12-07T05:15:48;32.53;;;16.43;;
54993;SDS011;40891;47.242;8.648;2022-12-07T05:18:14;31.90;;;16.47;;
54993;SDS011;40891;47.242;8.648;2022-12-07T05:20:40;35.90;;;17.07;;
54993;SDS011;40891;47.242;8.648;2022-12-07T05:23:06;32.73;;;16.03;;
54993;SDS011;40891;47.242;8.648;2022-12-07T05:25:31;33.30;;;15.80;;
54993;SDS011;40891;47.242;8.648;2022-12-07T05:27:57;33.33;;;16.53;;
54993;SDS011;40891;47.242;8.648;2022-12-07T05:30:25;33.37;;;16.03;;
54993;SDS011;40891;47.242;8.648;2022-12-07T05:32:51;30.77;;;15.50;;
54993;SDS011;40891;47.242;8.648;2022-12-07T05:35:17;32.77;;;15.50;;
54993;SDS011;40891;47.242;8.648;2022-12-07T05:37:43;33.77;;;16.30;;
54993;SDS011;40891;47.242;8.648;2022-12-07T05:40:09;31.13;;;15.93;;
54993;SDS011;40891;47.242;8.648;2022-12-07T05:42:35;33.70;;;15.90;;
54993;SDS011;40891;47.242;8.648;2022-12-07T05:45:00;31.77;;;16.70;;
54993;SDS011;40891;47.242;8.648;2022-12-07T05:47:26;38.30;;;16.67;;
54993;SDS011;40891;47.242;8.648;2022-12-07T05:49:51;36.70;;;17.63;;
54993;SDS011;40891;47.242;8.648;2022-12-07T05:52:17;35.87;;;16.33;;
54993;SDS011;40891;47.242;8.648;2022-12-07T05:54:42;30.13;;;15.80;;
54993;SDS011;40891;47.242;8.648;2022-12-07T05:57:07;33.03;;;17.23;;
54993;SDS011;40891;47.242;8.648;2022-12-07T05:59:33;30.60;;;16.33;;
54993;SDS011;40891;47.242;8.648;2022-12-07T06:04:28;37.37;;;18.27;;
54993;SDS011;40891;47.242;8.648;2022-12-07T06:06:55;37.20;;;17.33;;
54993;SDS011;40891;47.242;8.648;2022-12-07T06:09:21;35.03;;;16.77;;
54993;SDS011;40891;47.242;8.648;2022-12-07T06:11:48;36.10;;;17.50;;
54993;SDS011;40891;47.242;8.648;2022-12-07T06:14:32;32.87;;;16.67;;
54993;SDS011;40891;47.242;8.648;2022-12-07T06:16:57;40.73;;;17.37;;
54993;SDS011;40891;47.242;8.648;2022-12-07T06:19:23;32.97;;;16.20;;
54993;SDS011;40891;47.242;8.648;2022-12-07T06:21:48;34.17;;;17.97;;
54993;SDS011;40891;47.242;8.648;2022-12-07T06:24:14;41.33;;;16.60;;
54993;SDS011;40891;47.242;8.648;2022-12-07T06:26:40;36.50;;;17.33;;
54993;SDS011;40891;47.242;8.648;2022-12-07T06:29:06;37.03;;;17.00;;
54993;SDS011;40891;47.242;8.648;2022-12-07T06:31:31;36.23;;;17.43;;
54993;SDS011;40891;47.242;8.648;2022-12-07T06:34:00;34.43;;;17.23;;
54993;SDS011;40891;47.242;8.648;2022-12-07T06:36:28;35.77;;;16.47;;
54993;SDS011;40891;47.242;8.648;2022-12-07T06:38:54;33.93;;;17.00;;
54993;SDS011;40891;47.242;8.648;2022-12-07T06:41:19;38.13;;;17.17;;
54993;SDS011;40891;47.242;8.648;2022-12-07T06:43:45;38.97;;;17.77;;
54993;SDS011;40891;47.242;8.648;2022-12-07T06:46:11;37.13;;;17.87;;
54993;SDS011;40891;47.242;8.648;2022-12-07T06:48:36;41.03;;;18.73;;
54993;SDS011;40891;47.242;8.648;2022-12-07T06:51:02;42.33;;;19.50;;
54993;SDS011;40891;47.242;8.648;2022-12-07T06:53:27;41.93;;;19.83;;
54993;SDS011;40891;47.242;8.648;2022-12-07T06:55:52;40.83;;;18.80;;
54993;SDS011;40891;47.242;8.648;2022-12-07T06:58:18;42.43;;;18.87;;
54993;SDS011;40891;47.242;8.648;2022-12-07T07:00:43;50.40;;;20.50;;
54993;SDS011;40891;47.242;8.648;2022-12-07T07:03:09;47.73;;;20.50;;
54993;SDS011;40891;47.242;8.648;2022-12-07T07:05:35;47.77;;;20.03;;
54993;SDS011;40891;47.242;8.648;2022-12-07T07:08:01;49.37;;;20.53;;
54993;SDS011;40891;47.242;8.648;2022-12-07T07:10:26;50.83;;;21.23;;
54993;SDS011;40891;47.242;8.648;2022-12-07T07:12:52;54.43;;;21.00;;
54993;SDS011;40891;47.242;8.648;2022-12-07T07:15:17;55.00;;;20.17;;
54993;SDS011;40891;47.242;8.648;2022-12-07T07:17:43;51.30;;;21.67;;
54993;SDS011;40891;47.242;8.648;2022-12-07T07:20:08;56.50;;;20.83;;
54993;SDS011;40891;47.242;8.648;2022-12-07T07:22:34;54.43;;;21.97;;
54993;SDS011;40891;47.242;8.648;2022-12-07T07:24:59;51.90;;;21.37;;
54993;SDS011;40891;47.242;8.648;2022-12-07T07:27:25;48.30;;;21.53;;
54993;SDS011;40891;47.242;8.648;2022-12-07T07:29:50;55.10;;;22.87;;
54993;SDS011;40891;47.242;8.648;2022-12-07T07:32:15;49.60;;;21.50;;
54993;SDS011;40891;47.242;8.648;2022-12-07T07:34:41;50.80;;;20.93;;
54993;SDS011;40891;47.242;8.648;2022-12-07T07:37:06;52.57;;;21.13;;
54993;SDS011;40891;47.242;8.648;2022-12-07T07:39:32;50.47;;;19.90;;
54993;SDS011;40891;47.242;8.648;2022-12-07T07:41:57;52.80;;;20.23;;
54993;SDS011;40891;47.242;8.648;2022-12-07T07:44:22;51.77;;;21.63;;
54993;SDS011;40891;47.242;8.648;2022-12-07T07:46:48;51.47;;;20.47;;
54993;SDS011;40891;47.242;8.648;2022-12-07T07:49:13;53.00;;;20.80;;
54993;SDS011;40891;47.242;8.648;2022-12-07T07:51:39;49.17;;;20.57;;
54993;SDS011;40891;47.242;8.648;2022-12-07T07:54:04;54.80;;;20.27;;
54993;SDS011;40891;47.242;8.648;2022-12-07T07:56:30;48.20;;;20.67;;
54993;SDS011;40891;47.242;8.648;2022-12-07T07:58:55;54.77;;;22.03;;
54993;SDS011;40891;47.242;8.648;2022-12-07T08:01:21;54.03;;;21.70;;
54993;SDS011;40891;47.242;8.648;2022-12-07T08:03:46;55.83;;;22.07;;
54993;SDS011;40891;47.242;8.648;2022-12-07T08:06:12;50.90;;;21.50;;
54993;SDS011;40891;47.242;8.648;2022-12-07T08:08:37;47.73;;;20.33;;
54993;SDS011;40891;47.242;8.648;2022-12-07T08:11:06;56.83;;;21.23;;
54993;SDS011;40891;47.242;8.648;2022-12-07T08:13:33;49.97;;;20.13;;
54993;SDS011;40891;47.242;8.648;2022-12-07T08:15:58;48.10;;;21.70;;
54993;SDS011;40891;47.242;8.648;2022-12-07T08:18:29;53.80;;;21.77;;
54993;SDS011;40891;47.242;8.648;2022-12-07T08:21:00;55.37;;;20.90;;
54993;SDS011;40891;47.242;8.648;2022-12-07T08:23:26;52.60;;;20.07;;
54993;SDS011;40891;47.242;8.648;2022-12-07T08:25:52;49.50;;;21.13;;
54993;SDS011;40891;47.242;8.648;2022-12-07T08:28:17;51.93;;;19.20;;
54993;SDS011;40891;47.242;8.648;2022-12-07T08:30:42;48.00;;;20.40;;
54993;SDS011;40891;47.242;8.648;2022-12-07T08:33:08;52.10;;;21.10;;
54993;SDS011;40891;47.242;8.648;2022-12-07T08:35:35;44.73;;;19.73;;
54993;SDS011;40891;47.242;8.648;2022-12-07T08:38:00;52.53;;;20.80;;
54993;SDS011;40891;47.242;8.648;2022-12-07T08:40:27;51.43;;;23.50;;
54993;SDS011;40891;47.242;8.648;2022-12-07T08:42:53;52.83;;;19.80;;
54993;SDS011;40891;47.242;8.648;2022-12-07T08:45:19;48.20;;;19.40;;
54993;SDS011;40891;47.242;8.648;2022-12-07T08:47:56;45.13;;;19.13;;
54993;SDS011;40891;47.242;8.648;2022-12-07T08:50:27;48.13;;;18.47;;
54993;SDS011;40891;47.242;8.648;2022-12-07T08:52:54;47.63;;;19.27;;
54993;SDS011;40891;47.242;8.648;2022-12-07T08:55:21;47.87;;;20.17;;
54993;SDS011;40891;47.242;8.648;2022-12-07T08:57:47;43.13;;;18.80;;
54993;SDS011;40891;47.242;8.648;2022-12-07T09:00:13;52.60;;;19.03;;
54993;SDS011;40891;47.242;8.648;2022-12-07T09:02:39;43.57;;;18.30;;
54993;SDS011;40891;47.242;8.648;2022-12-07T09:05:05;45.00;;;19.07;;
54993;SDS011;40891;47.242;8.648;2022-12-07T09:07:31;46.80;;;19.33;;
54993;SDS011;40891;47.242;8.648;2022-12-07T09:09:58;45.80;;;18.93;;
54993;SDS011;40891;47.242;8.648;2022-12-07T09:12:23;45.10;;;19.23;;
54993;SDS011;40891;47.242;8.648;2022-12-07T09:14:49;45.37;;;18.33;;
54993;SDS011;40891;47.242;8.648;2022-12-07T09:17:14;49.23;;;20.60;;
54993;SDS011;40891;47.242;8.648;2022-12-07T09:19:40;40.80;;;19.03;;
54993;SDS011;40891;47.242;8.648;2022-12-07T09:22:07;52.73;;;21.83;;
54993;SDS011;40891;47.242;8.648;2022-12-07T09:24:33;45.13;;;18.80;;
54993;SDS011;40891;47.242;8.648;2022-12-07T09:26:58;42.30;;;18.63;;
54993;SDS011;40891;47.242;8.648;2022-12-07T09:29:24;44.40;;;19.33;;
54993;SDS011;40891;47.242;8.648;2022-12-07T09:31:50;48.17;;;19.10;;
54993;SDS011;40891;47.242;8.648;2022-12-07T09:34:16;41.40;;;17.93;;
54993;SDS011;40891;47.242;8.648;2022-12-07T09:36:42;41.60;;;18.10;;
54993;SDS011;40891;47.242;8.648;2022-12-07T09:39:08;42.73;;;18.10;;
54993;SDS011;40891;47.242;8.648;2022-12-07T09:41:33;40.33;;;16.73;;
54993;SDS011;40891;47.242;8.648;2022-12-07T09:44:04;38.60;;;16.83;;
54993;SDS011;40891;47.242;8.648;2022-12-07T09:46:35;37.20;;;17.03;;
54993;SDS011;40891;47.242;8.648;2022-12-07T09:49:03;43.23;;;17.50;;
54993;SDS011;40891;47.242;8.648;2022-12-07T09:51:30;42.17;;;18.20;;
54993;SDS011;40891;47.242;8.648;2022-12-07T09:53:57;45.03;;;19.13;;
54993;SDS011;40891;47.242;8.648;2022-12-07T09:56:23;49.27;;;19.77;;
54993;SDS011;40891;47.242;8.648;2022-12-07T09:58:50;41.43;;;17.87;;
54993;SDS011;40891;47.242;8.648;2022-12-07T10:01:22;47.90;;;19.37;;
54993;SDS011;40891;47.242;8.648;2022-12-07T10:03:49;43.17;;;19.40;;
54993;SDS011;40891;47.242;8.648;2022-12-07T10:06:15;43.70;;;19.23;;
54993;SDS011;40891;47.242;8.648;2022-12-07T10:08:40;45.53;;;20.40;;
54993;SDS011;40891;47.242;8.648;2022-12-07T10:11:08;50.07;;;20.73;;
54993;SDS011;40891;47.242;8.648;2022-12-07T10:18:53;39.90;;;16.30;;
54993;SDS011;40891;47.242;8.648;2022-12-07T10:21:20;37.70;;;16.13;;
54993;SDS011;40891;47.242;8.648;2022-12-07T10:24:08;34.90;;;16.40;;
54993;SDS011;40891;47.242;8.648;2022-12-07T10:31:38;36.60;;;16.53;;
54993;SDS011;40891;47.242;8.648;2022-12-07T10:34:12;35.43;;;16.33;;
54993;SDS011;40891;47.242;8.648;2022-12-07T10:36:46;36.13;;;16.77;;
54993;SDS011;40891;47.242;8.648;2022-12-07T10:39:13;36.30;;;16.57;;
54993;SDS011;40891;47.242;8.648;2022-12-07T10:42:00;40.33;;;17.00;;
54993;SDS011;40891;47.242;8.648;2022-12-07T10:44:28;37.03;;;16.17;;
54993;SDS011;40891;47.242;8.648;2022-12-07T10:47:02;41.23;;;17.43;;
54993;SDS011;40891;47.242;8.648;2022-12-07T10:49:42;42.90;;;18.00;;
54993;SDS011;40891;47.242;8.648;2022-12-07T11:00:37;42.80;;;18.47;;
54993;SDS011;40891;47.242;8.648;2022-12-07T11:11:19;43.93;;;18.00;;
54993;SDS011;40891;47.242;8.648;2022-12-07T11:16:50;42.23;;;17.97;;
54993;SDS011;40891;47.242;8.648;2022-12-07T11:24:40;41.87;;;18.50;;
54993;SDS011;40891;47.242;8.648;2022-12-07T11:27:13;39.23;;;17.93;;
54993;SDS011;40891;47.242;8.648;2022-12-07T11:35:12;43.03;;;18.17;;
54993;SDS011;40891;47.242;8.648;2022-12-07T11:37:42;39.27;;;17.87;;
54993;SDS011;40891;47.242;8.648;2022-12-07T11:46:18;39.30;;;18.43;;
54993;SDS011;40891;47.242;8.648;2022-12-07T11:48:44;37.87;;;18.27;;
54993;SDS011;40891;47.242;8.648;2022-12-07T11:51:15;41.07;;;18.63;;
54993;SDS011;40891;47.242;8.648;2022-12-07T11:53:50;42.13;;;18.80;;
54993;SDS011;40891;47.242;8.648;2022-12-07T11:56:21;37.80;;;18.67;;
54993;SDS011;40891;47.242;8.648;2022-12-07T12:03:55;37.20;;;18.70;;
54993;SDS011;40891;47.242;8.648;2022-12-07T12:06:22;38.07;;;18.47;;
54993;SDS011;40891;47.242;8.648;2022-12-07T12:08:55;36.17;;;17.53;;
54993;SDS011;40891;47.242;8.648;2022-12-07T12:11:41;40.43;;;18.33;;
54993;SDS011;40891;47.242;8.648;2022-12-07T12:14:28;39.53;;;17.90;;
54993;SDS011;40891;47.242;8.648;2022-12-07T12:22:32;36.07;;;17.47;;
54993;SDS011;40891;47.242;8.648;2022-12-07T12:25:02;38.20;;;18.53;;
54993;SDS011;40891;47.242;8.648;2022-12-07T12:27:31;36.43;;;17.00;;
54993;SDS011;40891;47.242;8.648;2022-12-07T12:30:01;38.37;;;17.47;;
54993;SDS011;40891;47.242;8.648;2022-12-07T12:32:41;34.37;;;16.90;;
54993;SDS011;40891;47.242;8.648;2022-12-07T12:37:48;33.50;;;16.40;;
54993;SDS011;40891;47.242;8.648;2022-12-07T12:45:26;38.63;;;19.27;;
54993;SDS011;40891;47.242;8.648;2022-12-07T12:53:12;33.43;;;16.63;;
54993;SDS011;40891;47.242;8.648;2022-12-07T13:00:43;36.93;;;16.17;;
54993;SDS011;40891;47.242;8.648;2022-12-07T13:03:29;38.20;;;16.83;;
54993;SDS011;40891;47.242;8.648;2022-12-07T13:08:50;37.93;;;16.97;;
54993;SDS011;40891;47.242;8.648;2022-12-07T13:11:20;30.97;;;15.20;;
54993;SDS011;40891;47.242;8.648;2022-12-07T13:16:58;27.73;;;13.83;;
54993;SDS011;40891;47.242;8.648;2022-12-07T13:27:43;23.87;;;12.67;;
54993;SDS011;40891;47.242;8.648;2022-12-07T13:30:14;27.03;;;12.87;;
54993;SDS011;40891;47.242;8.648;2022-12-07T13:32:41;29.37;;;13.20;;
54993;SDS011;40891;47.242;8.648;2022-12-07T13:37:58;26.00;;;13.50;;
54993;SDS011;40891;47.242;8.648;2022-12-07T13:40:24;25.83;;;12.70;;
54993;SDS011;40891;47.242;8.648;2022-12-07T13:43:00;26.30;;;13.57;;
54993;SDS011;40891;47.242;8.648;2022-12-07T13:45:32;25.33;;;13.30;;
54993;SDS011;40891;47.242;8.648;2022-12-07T13:51:00;23.90;;;12.50;;
54993;SDS011;40891;47.242;8.648;2022-12-07T13:53:28;25.53;;;12.57;;
54993;SDS011;40891;47.242;8.648;2022-12-07T13:55:55;26.27;;;12.37;;
54993;SDS011;40891;47.242;8.648;2022-12-07T13:58:22;25.13;;;12.07;;
54993;SDS011;40891;47.242;8.648;2022-12-07T14:00:49;23.70;;;12.13;;
54993;SDS011;40891;47.242;8.648;2022-12-07T14:05:41;25.10;;;12.20;;
54993;SDS011;40891;47.242;8.648;2022-12-07T14:10:53;27.27;;;12.57;;
54993;SDS011;40891;47.242;8.648;2022-12-07T14:13:31;25.90;;;13.07;;
54993;SDS011;40891;47.242;8.648;2022-12-07T14:15:58;25.27;;;12.10;;
54993;SDS011;40891;47.242;8.648;2022-12-07T14:23:36;26.13;;;13.00;;
54993;SDS011;40891;47.242;8.648;2022-12-07T14:26:18;23.20;;;11.83;;
54993;SDS011;40891;47.242;8.648;2022-12-07T14:28:45;21.73;;;12.00;;
54993;SDS011;40891;47.242;8.648;2022-12-07T14:33:37;23.40;;;12.40;;
54993;SDS011;40891;47.242;8.648;2022-12-07T14:36:03;23.60;;;12.47;;
54993;SDS011;40891;47.242;8.648;2022-12-07T14:38:29;26.60;;;12.97;;
54993;SDS011;40891;47.242;8.648;2022-12-07T14:40:54;23.93;;;12.80;;
54993;SDS011;40891;47.242;8.648;2022-12-07T14:43:40;20.97;;;11.60;;
54993;SDS011;40891;47.242;8.648;2022-12-07T14:46:06;24.33;;;12.70;;
54993;SDS011;40891;47.242;8.648;2022-12-07T14:48:31;24.00;;;11.93;;
54993;SDS011;40891;47.242;8.648;2022-12-07T14:50:57;22.67;;;12.53;;
54993;SDS011;40891;47.242;8.648;2022-12-07T14:53:24;24.73;;;12.57;;
54993;SDS011;40891;47.242;8.648;2022-12-07T14:55:55;21.97;;;11.97;;
54993;SDS011;40891;47.242;8.648;2022-12-07T14:58:20;24.07;;;12.23;;
54993;SDS011;40891;47.242;8.648;2022-12-07T15:00:46;25.03;;;13.13;;
54993;SDS011;40891;47.242;8.648;2022-12-07T15:03:12;23.87;;;12.30;;
54993;SDS011;40891;47.242;8.648;2022-12-07T15:05:38;22.50;;;12.23;;
54993;SDS011;40891;47.242;8.648;2022-12-07T15:08:04;24.77;;;12.80;;
54993;SDS011;40891;47.242;8.648;2022-12-07T15:10:31;24.10;;;12.43;;
54993;SDS011;40891;47.242;8.648;2022-12-07T15:12:58;23.90;;;12.87;;
54993;SDS011;40891;47.242;8.648;2022-12-07T15:15:44;21.93;;;11.10;;
54993;SDS011;40891;47.242;8.648;2022-12-07T15:18:10;25.00;;;12.67;;
54993;SDS011;40891;47.242;8.648;2022-12-07T15:20:35;21.60;;;11.70;;
54993;SDS011;40891;47.242;8.648;2022-12-07T15:23:00;26.63;;;12.50;;
54993;SDS011;40891;47.242;8.648;2022-12-07T15:25:26;26.37;;;12.63;;
54993;SDS011;40891;47.242;8.648;2022-12-07T15:27:51;22.70;;;12.20;;
54993;SDS011;40891;47.242;8.648;2022-12-07T15:30:16;21.03;;;11.27;;
54993;SDS011;40891;47.242;8.648;2022-12-07T15:32:42;21.60;;;12.47;;
54993;SDS011;40891;47.242;8.648;2022-12-07T15:35:07;23.77;;;12.10;;
54993;SDS011;40891;47.242;8.648;2022-12-07T15:37:33;24.93;;;12.40;;
54993;SDS011;40891;47.242;8.648;2022-12-07T15:39:58;22.87;;;12.70;;
54993;SDS011;40891;47.242;8.648;2022-12-07T15:42:24;23.93;;;11.83;;
54993;SDS011;40891;47.242;8.648;2022-12-07T15:44:49;23.27;;;11.20;;
54993;SDS011;40891;47.242;8.648;2022-12-07T15:47:40;22.00;;;12.33;;
54993;SDS011;40891;47.242;8.648;2022-12-07T15:50:08;21.20;;;12.13;;
54993;SDS011;40891;47.242;8.648;2022-12-07T15:52:41;20.77;;;11.33;;
54993;SDS011;40891;47.242;8.648;2022-12-07T15:55:07;22.00;;;11.57;;
54993;SDS011;40891;47.242;8.648;2022-12-07T15:57:35;21.27;;;11.80;;
54993;SDS011;40891;47.242;8.648;2022-12-07T16:00:02;24.13;;;12.37;;
54993;SDS011;40891;47.242;8.648;2022-12-07T16:02:29;23.53;;;12.47;;
54993;SDS011;40891;47.242;8.648;2022-12-07T16:04:54;24.67;;;12.17;;
54993;SDS011;40891;47.242;8.648;2022-12-07T16:07:20;22.13;;;12.63;;
54993;SDS011;40891;47.242;8.648;2022-12-07T16:09:45;27.50;;;13.57;;
54993;SDS011;40891;47.242;8.648;2022-12-07T16:12:12;26.00;;;13.57;;
54993;SDS011;40891;47.242;8.648;2022-12-07T16:14:38;23.40;;;11.73;;
54993;SDS011;40891;47.242;8.648;2022-12-07T16:17:04;26.30;;;13.33;;
54993;SDS011;40891;47.242;8.648;2022-12-07T16:19:31;24.47;;;12.93;;
54993;SDS011;40891;47.242;8.648;2022-12-07T16:21:57;23.40;;;12.60;;
54993;SDS011;40891;47.242;8.648;2022-12-07T16:24:24;27.70;;;12.77;;
54993;SDS011;40891;47.242;8.648;2022-12-07T16:26:50;27.77;;;14.13;;
54993;SDS011;40891;47.242;8.648;2022-12-07T16:29:16;27.63;;;13.47;;
54993;SDS011;40891;47.242;8.648;2022-12-07T16:31:43;29.13;;;14.20;;
54993;SDS011;40891;47.242;8.648;2022-12-07T16:34:09;22.63;;;11.90;;
54993;SDS011;40891;47.242;8.648;2022-12-07T16:36:34;24.27;;;13.03;;
54993;SDS011;40891;47.242;8.648;2022-12-07T16:39:00;24.07;;;11.87;;
54993;SDS011;40891;47.242;8.648;2022-12-07T16:41:26;27.73;;;13.83;;